Eureka, Canada
Current Conditions -  °F | °C
As of 2:00 AM on Friday 24 Oct 2014 (Local Time) from CWEU Reporting Station
Light Snow Light Snow  
Wind Chill: -27°   Ceiling: 2700
Heat Index: -8°   Visibility: 15mi
Dew Point: -15°   Wind: 12mph
Humidity: 71%   Direction: 130°SE
Pressure: 29.96"   Gusts: NA
Location:  79.98°N, 85.83°W
Report Text: CWEU 240700Z 13010KT 15SM -SN OVC027 M22/M26 A2996 RMK SC8SLP148
Loading
Personal Weather Stations






























Interactive Weather Map
Tropical Storm Tracking
New forecast layout! Learn more

10-Day Weather Forecast

Advertisements
Track Severe Weather on mobile